Darstellungsparameter: Aktuell verwendete Einstellungen:
Skalierung der Graphiken ... ?
xyx+y,   Skalierungsfaktor:      Skalierung: Modus: x, Faktor: 1
Darstellungszeitraum ... ?
Vom - - bis: - -   Zeitraum: 21.04.2007 - 23.04.2007
Min/Max/Avg-Anzeige ... ?
Zeige MMA aktuell
Zeige MMA Monat
Zeige MMA alles
Zeige --A aktuell
Zeige --A Monat
Zeige --A alles
Keine MMA-Anzeige
MMA:
Average (ber die Originaldaten)
MMA-Basis: 21.04.2007 - 23.04.2007
Quicknavigation für Darstellung... ?
Tage:      1T, 2T, 3T, 5T -1T -2T -3T -5T +1T +2T +3T +5T
Wochen: 1W, 2W, 3W -1W -2W -3W +1W +2W +3W
Monate: 1M, 3M, 6M -1M -3M -6M +1M +3M +6M
Jahre:    1J, 3J, 5J, 10J -1J -3J -5J -10J +1J +3J +5J +10J
Nutze für die Darstellung ... ?
Originaldaten oder Mittelwerte auf ...
Stundenbasis Tagesbasis Wochenbasis
Monatsbasis Jahresbasis      Datenbasis: Original-Daten
Darstellen als:
Statistik (Auto) Statistik J:M      Darstellung:
Zur Graphik,    zurück zur Übersicht aller Sensoren.
 
Tabellarische Datenbersicht: ?
 
Sensor: Nr:Datum:Temp:Abs-Feuchte:Windchill:Wind:
Aussen-T/F 1 21-04-2007 00:09:02 7.8 C 4 g/m*3 7.8 C 0 km/h
2 21-04-2007 00:24:02 7.5 C 4 g/m*3 7.5 C 0 km/h
3 21-04-2007 00:39:02 7.2 C 4 g/m*3 7.2 C 0 km/h
4 21-04-2007 00:54:02 7 C 3.95 g/m*3 7 C 0 km/h
5 21-04-2007 01:09:01 6.7 C 4.03 g/m*3 6.7 C 0 km/h
6 21-04-2007 01:24:02 6.5 C 4.12 g/m*3 6.5 C 0 km/h
7 21-04-2007 01:39:02 6.4 C 4.1 g/m*3 6.4 C 0 km/h
8 21-04-2007 01:54:02 6.2 C 4.12 g/m*3 6.2 C 0 km/h
9 21-04-2007 02:09:01 6 C 3.99 g/m*3 6 C 0 km/h
10 21-04-2007 02:24:01 5.7 C 4.06 g/m*3 5.7 C 0 km/h
11 21-04-2007 02:39:02 5.4 C 4.05 g/m*3 5.4 C 0 km/h
12 21-04-2007 02:55:03 5.3 C 4.09 g/m*3 5.3 C 0 km/h
13 21-04-2007 03:10:04 5.1 C 4.1 g/m*3 5.1 C 0 km/h
14 21-04-2007 03:25:04 5 C 4.14 g/m*3 5 C 0 km/h
15 21-04-2007 03:40:02 4.8 C 4.16 g/m*3 4.8 C 0 km/h
16 21-04-2007 03:55:03 4.5 C 4.14 g/m*3 4.5 C 0 km/h
17 21-04-2007 04:10:03 4.4 C 4.11 g/m*3 4.4 C 0 km/h
18 21-04-2007 04:25:03 4.2 C 4.06 g/m*3 4.2 C 0 km/h
19 21-04-2007 04:40:03 4 C 4.07 g/m*3 4 C 0 km/h
20 21-04-2007 04:55:02 3.8 C 4.2 g/m*3 3.8 C 0 km/h
21 21-04-2007 05:10:02 3.6 C 4.09 g/m*3 3.6 C 0 km/h
22 21-04-2007 05:25:02 3.4 C 4.03 g/m*3 3.4 C 0 km/h
23 21-04-2007 05:40:03 3.3 C 4.06 g/m*3 3.3 C 0 km/h
24 21-04-2007 05:55:02 3.1 C 4.07 g/m*3 3.1 C 0 km/h
25 21-04-2007 06:10:02 2.9 C 4.13 g/m*3 2.9 C 0 km/h
Sensor: Nr:Datum:Temp:Abs-Feuchte:Windchill:Wind:
Aussen-T/F 26 21-04-2007 06:25:03 2.8 C 4.16 g/m*3 2.8 C 0 km/h
27 21-04-2007 06:40:02 2.6 C 4.17 g/m*3 2.6 C 0 km/h
28 21-04-2007 06:55:02 2.5 C 4.25 g/m*3 2.5 C 0 km/h
29 21-04-2007 07:10:01 2.5 C 4.31 g/m*3 2.5 C 0 km/h
30 21-04-2007 07:25:01 2.5 C 4.25 g/m*3 2.5 C 0 km/h
31 21-04-2007 07:40:02 2.7 C 4.37 g/m*3 2.7 C 0 km/h
32 21-04-2007 07:55:02 3 C 4.4 g/m*3 3 C 0 km/h
33 21-04-2007 08:10:02 3.1 C 4.43 g/m*3 3.1 C 0 km/h
34 21-04-2007 08:25:02 3.4 C 4.46 g/m*3 3.4 C 0 km/h
35 21-04-2007 08:40:03 3.8 C 4.58 g/m*3 3.8 C 0 km/h
36 21-04-2007 08:55:02 4.3 C 4.54 g/m*3 4.3 C 0 km/h
37 21-04-2007 09:10:01 5.1 C 4.51 g/m*3 5.1 C 0 km/h
38 21-04-2007 09:25:02 5.7 C 4.55 g/m*3 5.7 C 0 km/h
39 21-04-2007 09:40:02 6.7 C 4.56 g/m*3 6.7 C 0 km/h
40 21-04-2007 09:55:02 7.6 C 4.43 g/m*3 7.6 C 0 km/h
41 21-04-2007 10:10:02 8.3 C 4.38 g/m*3 8.3 C 0 km/h
42 21-04-2007 10:25:02 9 C 4.23 g/m*3 9 C 0 km/h
43 21-04-2007 10:40:02 10.1 C 4.16 g/m*3 10.1 C 0 km/h
44 21-04-2007 10:55:02 10.5 C 4.07 g/m*3 10.5 C 0 km/h
45 21-04-2007 11:10:02 11.3 C 4.08 g/m*3 11.3 C 0 km/h
46 21-04-2007 11:25:01 12 C 4.05 g/m*3 12 C 0 km/h
47 21-04-2007 11:40:02 12.7 C 4.12 g/m*3 12.7 C 0 km/h
48 21-04-2007 11:55:02 13.2 C 4.02 g/m*3 13.2 C 0 km/h
49 21-04-2007 12:10:03 13.3 C 4.04 g/m*3 13.3 C 0 km/h
50 21-04-2007 12:25:02 14.2 C 4.03 g/m*3 14.2 C 0 km/h
Sensor: Nr:Datum:Temp:Abs-Feuchte:Windchill:Wind:
Aussen-T/F 51 21-04-2007 12:40:02 15.1 C 3.87 g/m*3 15.1 C 0 km/h
52 21-04-2007 12:55:02 15.4 C 3.81 g/m*3 15.4 C 0 km/h
53 21-04-2007 13:10:02 15.9 C 3.66 g/m*3 15.9 C 0 km/h
54 21-04-2007 13:25:03 16.7 C 3.69 g/m*3 16.7 C 0 km/h
55 21-04-2007 13:40:02 17 C 3.62 g/m*3 17 C 0 km/h
56 21-04-2007 13:55:02 17.2 C 3.37 g/m*3 17.2 C 0 km/h
57 21-04-2007 14:10:02 18.1 C 3.4 g/m*3 18.1 C 0 km/h
58 21-04-2007 14:25:01 18.7 C 3.36 g/m*3 18.7 C 0 km/h
59 21-04-2007 14:40:02 20.2 C 3.5 g/m*3 20.2 C 0 km/h
60 21-04-2007 14:55:01 19.9 C 3.44 g/m*3 19.9 C 0 km/h
61 21-04-2007 15:10:02 20.2 C 3.5 g/m*3 20.2 C 0 km/h
62 21-04-2007 15:25:01 20 C 3.46 g/m*3 20 C 0 km/h
63 21-04-2007 15:40:01 21.2 C 3.71 g/m*3 21.2 C 0 km/h
64 21-04-2007 15:55:01 21.8 C 3.84 g/m*3 21.8 C 0 km/h
65 21-04-2007 16:10:02 21.8 C 3.84 g/m*3 21.8 C 0 km/h
66 21-04-2007 16:25:02 22.8 C 4.06 g/m*3 22.8 C 0 km/h
67 21-04-2007 16:40:01 22.8 C 4.06 g/m*3 22.8 C 0 km/h
68 21-04-2007 16:55:02 23.2 C 4.16 g/m*3 23.2 C 0 km/h
69 21-04-2007 17:10:02 24.4 C 4.45 g/m*3 24.4 C 0 km/h
70 21-04-2007 17:25:02 23.6 C 4.25 g/m*3 23.6 C 0 km/h
71 21-04-2007 17:40:02 23.3 C 4.18 g/m*3 23.3 C 0 km/h
72 21-04-2007 17:55:03 24.6 C 4.5 g/m*3 24.6 C 0 km/h
73 21-04-2007 18:10:03 23.4 C 4.21 g/m*3 23.4 C 0 km/h
74 21-04-2007 18:25:02 22.2 C 3.93 g/m*3 22.2 C 0 km/h
75 21-04-2007 18:40:03 22.5 C 3.99 g/m*3 22.5 C 0 km/h
Sensor: Nr:Datum:Temp:Abs-Feuchte:Windchill:Wind:
Aussen-T/F 76 21-04-2007 18:55:01 21.5 C 3.77 g/m*3 21.5 C 0 km/h
77 21-04-2007 19:10:02 22.2 C 3.93 g/m*3 22.2 C 0 km/h
78 21-04-2007 19:25:02 22 C 3.88 g/m*3 22 C 0 km/h
79 21-04-2007 19:40:01 21.4 C 3.75 g/m*3 21.4 C 0 km/h
80 21-04-2007 19:55:02 20.5 C 3.56 g/m*3 20.5 C 0 km/h
81 21-04-2007 20:10:02 18.7 C 3.2 g/m*3 18.7 C 0 km/h
82 21-04-2007 20:25:02 16.9 C 3.45 g/m*3 16.9 C 0 km/h
83 21-04-2007 20:40:02 15.9 C 3.66 g/m*3 15.9 C 0 km/h
84 21-04-2007 20:55:03 15.3 C 3.53 g/m*3 15.3 C 0 km/h
85 21-04-2007 21:10:02 14.8 C 3.42 g/m*3 14.8 C 0 km/h
86 21-04-2007 21:25:02 14.4 C 3.46 g/m*3 14.4 C 0 km/h
87 21-04-2007 21:40:03 14.2 C 3.54 g/m*3 14.2 C 0 km/h
88 21-04-2007 21:55:02 13.8 C 3.69 g/m*3 13.8 C 0 km/h
89 21-04-2007 22:10:02 13.5 C 3.51 g/m*3 13.5 C 0 km/h
90 21-04-2007 22:25:02 13 C 3.52 g/m*3 13 C 0 km/h
91 21-04-2007 22:40:02 12.4 C 3.82 g/m*3 12.4 C 0 km/h
92 21-04-2007 22:55:03 11.8 C 3.79 g/m*3 11.8 C 0 km/h
93 21-04-2007 23:10:02 11.4 C 3.8 g/m*3 11.4 C 0 km/h
94 21-04-2007 23:25:03 11.4 C 3.8 g/m*3 11.4 C 0 km/h
95 21-04-2007 23:40:02 11.1 C 3.83 g/m*3 11.1 C 0 km/h
96 21-04-2007 23:55:02 10.8 C 3.95 g/m*3 10.8 C 0 km/h
97 22-04-2007 00:10:02 10.4 C 4.05 g/m*3 10.4 C 0 km/h
98 22-04-2007 00:25:02 9.9 C 4.11 g/m*3 9.9 C 0 km/h
99 22-04-2007 00:40:02 9.6 C 4.12 g/m*3 9.6 C 0 km/h
100 22-04-2007 00:55:02 9.5 C 4.28 g/m*3 9.5 C 0 km/h
Sensor: Nr:Datum:Temp:Abs-Feuchte:Windchill:Wind:
Aussen-T/F 101 22-04-2007 01:10:02 9.1 C 4.26 g/m*3 9.1 C 0 km/h
102 22-04-2007 01:25:02 8.7 C 4.41 g/m*3 8.7 C 0 km/h
103 22-04-2007 01:40:02 8.4 C 4.33 g/m*3 8.4 C 0 km/h
104 22-04-2007 01:55:03 8.2 C 4.35 g/m*3 8.2 C 0 km/h
105 22-04-2007 02:10:03 7.9 C 4.68 g/m*3 7.9 C 0 km/h
106 22-04-2007 02:25:02 7.5 C 4.64 g/m*3 7.5 C 0 km/h
107 22-04-2007 02:40:02 7.5 C 4.56 g/m*3 7.5 C 0 km/h
108 22-04-2007 02:55:02 7.4 C 4.61 g/m*3 7.4 C 0 km/h
109 22-04-2007 03:10:01 7.3 C 4.5 g/m*3 7.3 C 0 km/h
110 22-04-2007 03:25:01 7.2 C 4.63 g/m*3 7.2 C 0 km/h
111 22-04-2007 03:40:01 7 C 4.65 g/m*3 7 C 0 km/h
112 22-04-2007 03:55:01 7 C 4.73 g/m*3 7 C 0 km/h
113 22-04-2007 04:10:02 6.5 C 4.65 g/m*3 6.5 C 0 km/h
114 22-04-2007 04:25:02 6.3 C 4.74 g/m*3 6.3 C 0 km/h
115 22-04-2007 04:40:02 6.2 C 4.71 g/m*3 6.2 C 0 km/h
116 22-04-2007 04:55:01 5.9 C 4.69 g/m*3 5.9 C 0 km/h
117 22-04-2007 05:10:01 5.8 C 4.8 g/m*3 5.8 C 0 km/h
118 22-04-2007 05:25:02 5.6 C 4.88 g/m*3 5.6 C 0 km/h
119 22-04-2007 05:40:02 5.3 C 4.71 g/m*3 5.3 C 0 km/h
120 22-04-2007 05:55:01 5.2 C 4.75 g/m*3 5.2 C 0 km/h
121 22-04-2007 06:10:02 4.9 C 4.73 g/m*3 4.9 C 0 km/h
122 22-04-2007 06:25:01 4.8 C 4.76 g/m*3 4.8 C 0 km/h
123 22-04-2007 06:40:01 4.7 C 4.73 g/m*3 4.7 C 0 km/h
124 22-04-2007 06:55:01 4.6 C 4.76 g/m*3 4.6 C 0 km/h
125 22-04-2007 07:10:01 4.6 C 4.83 g/m*3 4.6 C 0 km/h
Sensor: Nr:Datum:Temp:Abs-Feuchte:Windchill:Wind:
Aussen-T/F 126 22-04-2007 07:25:02 4.7 C 4.8 g/m*3 4.7 C 0 km/h
127 22-04-2007 07:40:01 4.8 C 4.83 g/m*3 4.8 C 0 km/h
128 22-04-2007 07:55:02 5 C 4.89 g/m*3 5 C 0 km/h
129 22-04-2007 08:10:01 5.3 C 4.92 g/m*3 5.3 C 0 km/h
130 22-04-2007 08:25:01 5.7 C 5.05 g/m*3 5.7 C 0 km/h
131 22-04-2007 08:40:02 6.1 C 5.11 g/m*3 6.1 C 0 km/h
132 22-04-2007 08:55:02 6.5 C 5.1 g/m*3 6.5 C 0 km/h
133 22-04-2007 09:10:02 7 C 5.11 g/m*3 7 C 0 km/h
134 22-04-2007 09:25:01 7.8 C 5.14 g/m*3 7.8 C 0 km/h
135 22-04-2007 09:40:02 8.6 C 5.07 g/m*3 8.6 C 0 km/h
136 22-04-2007 09:55:01 9.7 C 5.07 g/m*3 9.7 C 0 km/h
137 22-04-2007 10:10:02 10.8 C 4.94 g/m*3 10.8 C 0 km/h
138 22-04-2007 10:25:01 11.9 C 4.98 g/m*3 11.9 C 0 km/h
139 22-04-2007 10:40:01 12.9 C 5.07 g/m*3 12.9 C 0 km/h
140 22-04-2007 10:55:01 13.6 C 4.83 g/m*3 13.6 C 0 km/h
141 22-04-2007 11:10:01 14.2 C 4.64 g/m*3 14.2 C 0 km/h
142 22-04-2007 11:25:02 14.9 C 4.59 g/m*3 14.9 C 0 km/h
143 22-04-2007 11:40:01 16.1 C 4.66 g/m*3 16.1 C 0 km/h
144 22-04-2007 11:55:02 17.1 C 4.66 g/m*3 17.1 C 0 km/h
145 22-04-2007 12:10:02 17.9 C 4.58 g/m*3 17.9 C 0 km/h
146 22-04-2007 12:25:01 18.6 C 4.3 g/m*3 18.6 C 0 km/h
147 22-04-2007 12:40:02 18.8 C 4.19 g/m*3 18.8 C 0 km/h
148 22-04-2007 12:55:01 19.3 C 4.15 g/m*3 19.3 C 0 km/h
149 22-04-2007 13:10:02 20.5 C 4.27 g/m*3 20.5 C 0 km/h
150 22-04-2007 13:25:01 21.6 C 3.98 g/m*3 21.6 C 0 km/h
Sensor: Nr:Datum:Temp:Abs-Feuchte:Windchill:Wind:
Aussen-T/F 151 22-04-2007 13:40:01 22.3 C 4.15 g/m*3 22.3 C 0 km/h
152 22-04-2007 13:55:01 22.8 C 4.27 g/m*3 22.8 C 0 km/h
153 22-04-2007 14:10:01 23.4 C 4.21 g/m*3 23.4 C 0 km/h
154 22-04-2007 14:25:02 24.4 C 4.45 g/m*3 24.4 C 0 km/h
155 22-04-2007 14:40:01 25.3 C 4.68 g/m*3 25.3 C 0 km/h
156 22-04-2007 14:55:02 25.7 C 4.79 g/m*3 25.7 C 0 km/h
157 22-04-2007 15:10:01 26.3 C 4.95 g/m*3 26.3 C 0 km/h
158 22-04-2007 15:25:02 26.5 C 5.01 g/m*3 26.5 C 0 km/h
159 22-04-2007 15:40:02 27.9 C 5.41 g/m*3 27.9 C 0 km/h
160 22-04-2007 15:55:02 28.7 C 5.65 g/m*3 28.7 C 0 km/h
161 22-04-2007 16:10:02 29.5 C 5.9 g/m*3 29.5 C 0 km/h
162 22-04-2007 16:25:01 28.8 C 5.68 g/m*3 28.8 C 0 km/h
163 22-04-2007 16:40:02 28.8 C 5.68 g/m*3 28.8 C 0 km/h
164 22-04-2007 16:55:01 28.7 C 5.65 g/m*3 28.7 C 0 km/h
165 22-04-2007 17:10:02 29 C 5.74 g/m*3 29 C 0 km/h
166 22-04-2007 17:25:01 29.7 C 5.97 g/m*3 29.7 C 0 km/h
167 22-04-2007 17:40:01 29.5 C 5.9 g/m*3 29.5 C 0 km/h
168 22-04-2007 17:55:01 29.2 C 5.81 g/m*3 29.2 C 0 km/h
169 22-04-2007 18:10:01 29.9 C 6.03 g/m*3 29.9 C 0 km/h
170 22-04-2007 18:25:02 29.2 C 5.81 g/m*3 29.2 C 0 km/h
171 22-04-2007 18:40:01 28.3 C 5.53 g/m*3 28.3 C 0 km/h
172 22-04-2007 18:55:02 29.2 C 5.81 g/m*3 29.2 C 0 km/h
173 22-04-2007 19:10:01 28.7 C 5.65 g/m*3 28.7 C 0 km/h
174 22-04-2007 19:25:01 28.6 C 5.62 g/m*3 28.6 C 0 km/h
175 22-04-2007 19:40:02 27.6 C 5.32 g/m*3 27.6 C 0 km/h
Sensor: Nr:Datum:Temp:Abs-Feuchte:Windchill:Wind:
Aussen-T/F 176 22-04-2007 19:55:01 25.8 C 4.82 g/m*3 25.8 C 0 km/h
177 22-04-2007 20:10:02 24 C 4.35 g/m*3 24 C 0 km/h
178 22-04-2007 20:25:01 21.9 C 4.25 g/m*3 21.9 C 0 km/h
179 22-04-2007 20:40:02 20.8 C 4.53 g/m*3 20.8 C 0 km/h
180 22-04-2007 20:55:01 20.2 C 4.55 g/m*3 20.2 C 0 km/h
181 22-04-2007 21:10:02 19.5 C 4.53 g/m*3 19.5 C 0 km/h
182 22-04-2007 21:25:02 18.7 C 4.64 g/m*3 18.7 C 0 km/h
183 22-04-2007 21:40:01 18.5 C 4.75 g/m*3 18.5 C 0 km/h
184 22-04-2007 21:55:02 17.8 C 4.71 g/m*3 17.8 C 0 km/h
185 22-04-2007 22:10:01 17.4 C 4.89 g/m*3 17.4 C 0 km/h
186 22-04-2007 22:25:02 16.9 C 4.89 g/m*3 16.9 C 0 km/h
187 22-04-2007 22:40:02 16.4 C 4.89 g/m*3 16.4 C 0 km/h
188 22-04-2007 22:55:02 16 C 4.77 g/m*3 16 C 0 km/h
189 22-04-2007 23:10:01 15.5 C 4.89 g/m*3 15.5 C 0 km/h
190 22-04-2007 23:25:01 14.9 C 5.23 g/m*3 14.9 C 0 km/h
191 22-04-2007 23:40:02 14.5 C 5.47 g/m*3 14.5 C 0 km/h
192 22-04-2007 23:55:01 13.9 C 5.27 g/m*3 13.9 C 0 km/h
193 23-04-2007 00:10:02 13.8 C 5.36 g/m*3 13.8 C 0 km/h
194 23-04-2007 00:25:02 13 C 5.22 g/m*3 13 C 0 km/h
195 23-04-2007 00:40:02 13.1 C 5.25 g/m*3 13.1 C 0 km/h
196 23-04-2007 00:55:01 12.9 C 5.3 g/m*3 12.9 C 0 km/h
197 23-04-2007 01:10:02 12.7 C 5.34 g/m*3 12.7 C 0 km/h
198 23-04-2007 01:25:02 12.3 C 5.32 g/m*3 12.3 C 0 km/h
199 23-04-2007 01:40:02 12 C 5.44 g/m*3 12 C 0 km/h
200 23-04-2007 01:55:02 11.9 C 5.51 g/m*3 11.9 C 0 km/h
Sensor: Nr:Datum:Temp:Abs-Feuchte:Windchill:Wind:
Aussen-T/F 201 23-04-2007 02:10:02 11.4 C 5.65 g/m*3 11.4 C 0 km/h
202 23-04-2007 02:25:01 11.1 C 5.64 g/m*3 11.1 C 0 km/h
203 23-04-2007 02:40:02 11 C 5.61 g/m*3 11 C 0 km/h
204 23-04-2007 02:55:01 10.7 C 5.7 g/m*3 10.7 C 0 km/h
205 23-04-2007 03:10:02 10.6 C 5.76 g/m*3 10.6 C 0 km/h
206 23-04-2007 03:25:02 10.5 C 5.72 g/m*3 10.5 C 0 km/h
207 23-04-2007 03:40:02 10.1 C 5.67 g/m*3 10.1 C 0 km/h
208 23-04-2007 03:55:02 9.7 C 5.81 g/m*3 9.7 C 0 km/h
209 23-04-2007 04:10:01 9.3 C 5.75 g/m*3 9.3 C 0 km/h
210 23-04-2007 04:25:01 9.3 C 5.75 g/m*3 9.3 C 0 km/h
211 23-04-2007 04:40:02 9.1 C 5.77 g/m*3 9.1 C 0 km/h
212 23-04-2007 04:55:01 8.7 C 5.79 g/m*3 8.7 C 0 km/h
213 23-04-2007 05:10:01 8.7 C 5.88 g/m*3 8.7 C 0 km/h
214 23-04-2007 05:25:02 8.5 C 5.89 g/m*3 8.5 C 0 km/h
215 23-04-2007 05:40:02 8.3 C 5.82 g/m*3 8.3 C 0 km/h
216 23-04-2007 05:55:02 8.1 C 5.74 g/m*3 8.1 C 0 km/h
217 23-04-2007 06:10:01 8.1 C 5.82 g/m*3 8.1 C 0 km/h
218 23-04-2007 06:25:02 7.9 C 5.83 g/m*3 7.9 C 0 km/h
219 23-04-2007 06:40:01 7.6 C 5.88 g/m*3 7.6 C 0 km/h
220 23-04-2007 06:55:02 7.5 C 5.92 g/m*3 7.5 C 0 km/h
221 23-04-2007 07:10:02 7.5 C 6 g/m*3 7.5 C 0 km/h
222 23-04-2007 07:25:02 7.3 C 6 g/m*3 7.3 C 0 km/h
223 23-04-2007 07:40:01 7.5 C 6 g/m*3 7.5 C 0 km/h
224 23-04-2007 07:55:02 7.9 C 6.16 g/m*3 7.9 C 0 km/h
225 23-04-2007 08:10:02 8.2 C 6.03 g/m*3 8.2 C 0 km/h
Sensor: Nr:Datum:Temp:Abs-Feuchte:Windchill:Wind:
Aussen-T/F 226 23-04-2007 08:25:01 8.6 C 6.19 g/m*3 8.6 C 0 km/h
227 23-04-2007 08:40:02 9.2 C 5.98 g/m*3 9.2 C 0 km/h
228 23-04-2007 08:55:01 9.5 C 6.19 g/m*3 9.5 C 0 km/h
229 23-04-2007 09:10:02 9.9 C 6.16 g/m*3 9.9 C 0 km/h
230 23-04-2007 09:25:01 10.5 C 6.21 g/m*3 10.5 C 0 km/h
231 23-04-2007 09:40:01 11.3 C 6.32 g/m*3 11.3 C 0 km/h
232 23-04-2007 09:55:01 12.3 C 6.52 g/m*3 12.3 C 0 km/h
233 23-04-2007 10:10:01 13.2 C 6.66 g/m*3 13.2 C 0 km/h
234 23-04-2007 10:25:02 14.2 C 6.72 g/m*3 14.2 C 0 km/h
235 23-04-2007 10:40:01 15.3 C 6.4 g/m*3 15.3 C 0 km/h
236 23-04-2007 10:55:02 16.1 C 6.17 g/m*3 16.1 C 0 km/h
237 23-04-2007 11:10:01 16.9 C 6.18 g/m*3 16.9 C 0 km/h
238 23-04-2007 11:25:02 17.9 C 5.8 g/m*3 17.9 C 0 km/h
239 23-04-2007 11:40:02 18.8 C 5.8 g/m*3 18.8 C 0 km/h
240 23-04-2007 11:55:02 19.5 C 4.7 g/m*3 19.5 C 0 km/h
241 23-04-2007 12:10:02 20.5 C 4.98 g/m*3 20.5 C 0 km/h
242 23-04-2007 12:25:01 21.8 C 4.8 g/m*3 21.8 C 0 km/h
243 23-04-2007 12:40:02 21.9 C 4.82 g/m*3 21.9 C 0 km/h
244 23-04-2007 12:55:01 22.6 C 5.02 g/m*3 22.6 C 0 km/h
245 23-04-2007 13:10:02 23.4 C 5.26 g/m*3 23.4 C 0 km/h
246 23-04-2007 13:25:01 24.4 C 5.34 g/m*3 24.4 C 0 km/h
247 23-04-2007 13:40:01 24.8 C 5.24 g/m*3 24.8 C 0 km/h
248 23-04-2007 13:55:01 25 C 4.83 g/m*3 25 C 0 km/h
249 23-04-2007 14:10:01 25.3 C 4.92 g/m*3 25.3 C 0 km/h
250 23-04-2007 14:25:02 25.9 C 4.84 g/m*3 25.9 C 0 km/h
Sensor: Nr:Datum:Temp:Abs-Feuchte:Windchill:Wind:
Aussen-T/F 251 23-04-2007 14:40:01 26.7 C 5.06 g/m*3 26.7 C 0 km/h
252 23-04-2007 14:55:02 26.9 C 5.12 g/m*3 26.9 C 0 km/h
253 23-04-2007 15:10:01 27.7 C 5.35 g/m*3 27.7 C 0 km/h
254 23-04-2007 15:25:02 28.1 C 5.47 g/m*3 28.1 C 0 km/h
255 23-04-2007 15:40:02 27.9 C 5.41 g/m*3 27.9 C 0 km/h
256 23-04-2007 15:55:02 27.8 C 5.38 g/m*3 27.8 C 0 km/h
257 23-04-2007 16:10:01 27.6 C 5.32 g/m*3 27.6 C 0 km/h
258 23-04-2007 16:25:01 28.2 C 5.5 g/m*3 28.2 C 0 km/h
259 23-04-2007 16:40:02 28.1 C 5.47 g/m*3 28.1 C 0 km/h
260 23-04-2007 16:55:01 28.8 C 5.68 g/m*3 28.8 C 0 km/h
261 23-04-2007 17:10:02 27.8 C 5.38 g/m*3 27.8 C 0 km/h
262 23-04-2007 17:25:01 28.9 C 5.71 g/m*3 28.9 C 0 km/h
263 23-04-2007 17:40:01 29.3 C 5.84 g/m*3 29.3 C 0 km/h
264 23-04-2007 17:55:01 28.3 C 5.53 g/m*3 28.3 C 0 km/h
265 23-04-2007 18:10:01 27.1 C 5.18 g/m*3 27.1 C 0 km/h
266 23-04-2007 18:25:02 26.6 C 5.03 g/m*3 26.6 C 0 km/h
267 23-04-2007 18:40:01 26.1 C 5.63 g/m*3 26.1 C 0 km/h
268 23-04-2007 18:55:02 25.1 C 6.02 g/m*3 25.1 C 0 km/h
269 23-04-2007 19:10:01 24.3 C 6.2 g/m*3 24.3 C 0 km/h
270 23-04-2007 19:25:01 23.7 C 6.42 g/m*3 23.7 C 0 km/h
271 23-04-2007 19:40:02 23.1 C 6.2 g/m*3 23.1 C 0 km/h
272 23-04-2007 19:55:01 22.6 C 6.23 g/m*3 22.6 C 0 km/h
273 23-04-2007 20:10:02 22 C 6.02 g/m*3 22 C 0 km/h
274 23-04-2007 20:25:01 21.9 C 6.18 g/m*3 21.9 C 0 km/h
275 23-04-2007 20:40:01 21.7 C 6.29 g/m*3 21.7 C 0 km/h
Sensor: Nr:Datum:Temp:Abs-Feuchte:Windchill:Wind:
Aussen-T/F 276 23-04-2007 20:55:01 21.1 C 6.08 g/m*3 21.1 C 0 km/h
277 23-04-2007 21:10:02 20.9 C 6.37 g/m*3 20.9 C 0 km/h
278 23-04-2007 21:25:02 21 C 6.23 g/m*3 21 C 0 km/h
279 23-04-2007 21:40:02 20.4 C 6.37 g/m*3 20.4 C 0 km/h
280 23-04-2007 21:55:01 20.1 C 6.26 g/m*3 20.1 C 0 km/h
281 23-04-2007 22:10:01 20 C 6.39 g/m*3 20 C 0 km/h
282 23-04-2007 22:25:02 19.7 C 6.45 g/m*3 19.7 C 0 km/h
283 23-04-2007 22:40:01 19.4 C 6.67 g/m*3 19.4 C 0 km/h
284 23-04-2007 22:55:02 19.1 C 6.56 g/m*3 19.1 C 0 km/h
285 23-04-2007 23:10:01 19 C 6.68 g/m*3 19 C 0 km/h
286 23-04-2007 23:25:01 19 C 6.68 g/m*3 19 C 0 km/h
287 23-04-2007 23:40:02 18.7 C 6.88 g/m*3 18.7 C 0 km/h
288 23-04-2007 23:55:01 18.3 C 7.04 g/m*3 18.3 C 0 km/h

Legende:
   Min
   Max


Maximal/Minimal-Werte vom 21.04.2007 - 23.04.2007

Sensor Min Max Avg
Temp
(Aussen-T/F)
2.5 °C
21-04-2007  06:55:02
29.9 °C
22-04-2007  18:10:01
15.01 °C
Abs-Feuchte
(Aussen-T/F)
3.2 g/m*3
21-04-2007  20:10:02
7.04 g/m*3
23-04-2007  23:55:01
4.86 g/m*3
Windchill
(Aussen-T/F)
2.5 C
21-04-2007  06:55:02
29.9 C
22-04-2007  18:10:01
14.96 C

Die Daten stammen von einer Davis Vantage Pro 2 Wetter-Station und werden unter Linux mit der Software wview2wettercgi und aufbereitet. Alle Angaben erfolgen ohne Gewähr für ihre Vollständigkeit oder Richtigkeit.
Kontakt: Rainer Krienke krienke@uni-koblenz.de . Meine Webseiten an der Uni Koblenz oder privat.
Version: $Revision: 0.78 $